createdAt,value
2022-11-10T00:00:05.997Z,8.30
2022-11-10T00:02:53.408Z,8.30
2022-11-10T00:05:42.039Z,8.30
2022-11-10T00:08:29.099Z,8.20
2022-11-10T00:11:16.153Z,8.20
2022-11-10T00:14:23.366Z,8.10
2022-11-10T00:17:10.920Z,8.00
2022-11-10T00:19:57.842Z,7.90
2022-11-10T00:22:44.756Z,7.90
2022-11-10T00:25:33.075Z,7.90
2022-11-10T00:28:19.831Z,7.90
2022-11-10T00:31:08.931Z,7.90
2022-11-10T00:33:56.003Z,7.80
2022-11-10T00:36:43.844Z,7.80
2022-11-10T00:39:30.859Z,7.80
2022-11-10T00:42:17.912Z,7.70
2022-11-10T00:45:05.910Z,7.70
2022-11-10T00:47:54.685Z,7.60
2022-11-10T00:50:41.749Z,7.60
2022-11-10T00:53:42.923Z,7.50
2022-11-10T00:56:30.886Z,7.50
2022-11-10T00:59:18.148Z,7.40
2022-11-10T01:02:05.461Z,7.40
2022-11-10T01:04:54.086Z,7.40
2022-11-10T01:07:41.348Z,7.50
2022-11-10T01:10:28.209Z,7.40
2022-11-10T01:13:15.194Z,7.40
2022-11-10T01:16:05.781Z,7.40
2022-11-10T01:18:53.865Z,7.30
2022-11-10T01:21:42.626Z,7.30
2022-11-10T01:24:29.327Z,7.30
2022-11-10T01:27:16.202Z,7.20
2022-11-10T01:30:03.656Z,7.20
2022-11-10T01:32:50.558Z,7.20
2022-11-10T01:35:38.172Z,7.20
2022-11-10T01:38:28.880Z,7.10
2022-11-10T01:41:16.006Z,7.10
2022-11-10T01:44:17.408Z,7.00
2022-11-10T01:47:04.748Z,7.00
2022-11-10T01:49:51.848Z,7.00
2022-11-10T01:52:39.040Z,6.90
2022-11-10T01:55:28.624Z,6.90
2022-11-10T01:58:18.155Z,6.90
2022-11-10T02:01:05.320Z,6.80
2022-11-10T02:03:55.005Z,6.80
2022-11-10T02:06:44.852Z,6.80
2022-11-10T02:09:32.104Z,6.80
2022-11-10T02:12:36.978Z,6.80
2022-11-10T02:15:25.112Z,6.80
2022-11-10T02:18:12.332Z,6.80
2022-11-10T02:21:00.767Z,6.90
2022-11-10T02:23:50.635Z,6.80
2022-11-10T02:26:42.431Z,6.80
2022-11-10T02:29:31.576Z,6.80
2022-11-10T02:32:18.732Z,6.80
2022-11-10T02:35:06.633Z,6.80
2022-11-10T02:37:55.484Z,6.80
2022-11-10T02:40:42.763Z,6.90
2022-11-10T02:43:30.405Z,6.90
2022-11-10T02:46:17.372Z,6.80
2022-11-10T02:49:04.787Z,6.80
2022-11-10T02:51:51.690Z,6.80
2022-11-10T02:54:39.759Z,6.80
2022-11-10T02:57:26.544Z,6.80
2022-11-10T03:00:14.221Z,6.80
2022-11-10T03:03:02.363Z,6.70
2022-11-10T03:05:49.155Z,6.80
2022-11-10T03:08:35.980Z,6.80
2022-11-10T03:11:29.363Z,6.70
2022-11-10T03:14:18.729Z,6.70
2022-11-10T03:17:05.755Z,6.60
2022-11-10T03:19:52.800Z,6.60
2022-11-10T03:22:39.867Z,6.60
2022-11-10T03:25:27.123Z,6.60
2022-11-10T03:28:18.191Z,6.60
2022-11-10T03:31:05.522Z,6.60
2022-11-10T03:33:53.006Z,6.50
2022-11-10T03:36:40.179Z,6.50
2022-11-10T03:39:27.041Z,6.50
2022-11-10T03:42:14.238Z,6.60
2022-11-10T03:45:02.852Z,6.60
2022-11-10T03:47:51.117Z,6.70
2022-11-10T03:50:38.340Z,6.70
2022-11-10T03:53:25.516Z,6.80
2022-11-10T03:56:13.443Z,6.80
2022-11-10T03:59:00.403Z,6.90
2022-11-10T04:01:48.831Z,7.10
2022-11-10T04:04:52.780Z,7.20
2022-11-10T04:07:56.844Z,7.30
2022-11-10T04:10:44.202Z,7.40
2022-11-10T04:13:48.294Z,7.50
2022-11-10T04:16:35.421Z,7.60
2022-11-10T04:19:23.896Z,7.60
2022-11-10T04:22:30.693Z,7.70
2022-11-10T04:25:17.476Z,7.70
2022-11-10T04:28:04.637Z,7.80
2022-11-10T04:30:51.768Z,7.80
2022-11-10T04:33:39.647Z,7.80
2022-11-10T04:36:30.170Z,7.80
2022-11-10T04:39:17.149Z,7.80
2022-11-10T04:42:03.886Z,7.80
2022-11-10T04:44:50.709Z,7.80
2022-11-10T04:47:37.440Z,7.80
2022-11-10T04:50:24.140Z,7.80
2022-11-10T04:53:12.352Z,7.80
2022-11-10T04:55:59.445Z,7.80
2022-11-10T04:58:46.638Z,7.80
2022-11-10T05:01:33.439Z,7.80
2022-11-10T05:04:20.287Z,7.80
2022-11-10T05:07:07.110Z,7.80
2022-11-10T05:09:55.197Z,7.80
2022-11-10T05:12:42.244Z,7.80
2022-11-10T05:15:28.985Z,7.80
2022-11-10T05:18:15.710Z,7.80
2022-11-10T05:21:02.967Z,7.80
2022-11-10T05:23:49.530Z,7.80
2022-11-10T05:26:37.629Z,7.80
2022-11-10T05:29:24.899Z,7.80
2022-11-10T05:32:11.712Z,7.80
2022-11-10T05:34:58.470Z,7.80
2022-11-10T05:37:45.411Z,7.80
2022-11-10T05:40:32.736Z,7.80
2022-11-10T05:43:21.821Z,7.80
2022-11-10T05:46:09.439Z,7.80
2022-11-10T05:48:56.587Z,7.80
2022-11-10T05:51:44.014Z,7.80
2022-11-10T05:54:31.280Z,7.80
2022-11-10T05:57:18.556Z,7.80
2022-11-10T06:00:09.766Z,7.80
2022-11-10T06:03:01.978Z,7.80
2022-11-10T06:05:49.041Z,7.80
2022-11-10T06:08:36.525Z,7.80
2022-11-10T06:14:38.272Z,7.80
2022-11-10T06:17:27.108Z,7.80
2022-11-10T06:20:15.379Z,7.80
2022-11-10T06:23:03.914Z,7.80
2022-11-10T06:25:50.928Z,7.70
2022-11-10T06:28:37.759Z,7.80
2022-11-10T06:31:24.852Z,7.70
2022-11-10T06:34:13.418Z,7.70
2022-11-10T06:37:00.351Z,7.70
2022-11-10T06:39:47.580Z,7.70
2022-11-10T06:42:35.183Z,7.80
2022-11-10T22:31:12.846Z,11.40
2022-11-10T22:33:59.716Z,11.40
2022-11-10T22:36:49.278Z,11.40
2022-11-10T22:39:56.376Z,11.40
2022-11-10T22:43:00.975Z,11.40
2022-11-10T22:45:47.930Z,11.40
2022-11-10T22:48:36.156Z,11.40
2022-11-10T22:51:22.993Z,11.40
2022-11-10T22:54:12.106Z,11.40
2022-11-10T22:56:58.850Z,11.40
2022-11-10T22:59:45.696Z,11.50
2022-11-10T23:02:32.391Z,11.50
2022-11-10T23:05:20.616Z,11.50
2022-11-10T23:08:07.675Z,11.60
2022-11-10T23:10:59.616Z,11.60
2022-11-10T23:13:47.257Z,11.60
2022-11-10T23:16:35.724Z,11.60
2022-11-10T23:19:22.449Z,11.70
2022-11-10T23:22:10.568Z,11.70
2022-11-10T23:24:57.794Z,11.70
2022-11-10T23:27:44.456Z,11.70
2022-11-10T23:30:31.080Z,11.70
2022-11-10T23:33:17.873Z,11.80
2022-11-10T23:36:05.128Z,11.70
2022-11-10T23:38:55.029Z,11.70
2022-11-10T23:41:41.778Z,11.70
2022-11-10T23:44:28.503Z,11.80
2022-11-10T23:47:15.328Z,11.80
2022-11-10T23:50:02.057Z,11.80
2022-11-10T23:52:48.892Z,11.80
2022-11-10T23:55:37.191Z,11.70
2022-11-10T23:58:24.182Z,11.70
